sensor_id;sensor_type;location;lat;lon;timestamp;P1;durP1;ratioP1;P2;durP2;ratioP2
44750;SDS011;30477;48.224;11.470;2022-08-26T00:00:48;20.63;;;14.27;;
44750;SDS011;30477;48.224;11.470;2022-08-26T00:03:14;22.58;;;13.63;;
44750;SDS011;30477;48.224;11.470;2022-08-26T00:05:41;22.00;;;14.23;;
44750;SDS011;30477;48.224;11.470;2022-08-26T00:08:07;18.70;;;14.00;;
44750;SDS011;30477;48.224;11.470;2022-08-26T00:10:34;18.88;;;15.20;;
44750;SDS011;30477;48.224;11.470;2022-08-26T00:13:00;18.15;;;13.93;;
44750;SDS011;30477;48.224;11.470;2022-08-26T00:15:25;18.27;;;14.10;;
44750;SDS011;30477;48.224;11.470;2022-08-26T00:17:51;19.47;;;14.17;;
44750;SDS011;30477;48.224;11.470;2022-08-26T00:20:18;21.02;;;14.25;;
44750;SDS011;30477;48.224;11.470;2022-08-26T00:22:47;20.65;;;14.48;;
44750;SDS011;30477;48.224;11.470;2022-08-26T00:25:13;20.60;;;14.43;;
44750;SDS011;30477;48.224;11.470;2022-08-26T00:30:06;24.67;;;15.35;;
44750;SDS011;30477;48.224;11.470;2022-08-26T00:32:33;20.38;;;14.77;;
44750;SDS011;30477;48.224;11.470;2022-08-26T00:34:59;17.70;;;14.68;;
44750;SDS011;30477;48.224;11.470;2022-08-26T00:37:25;18.80;;;14.52;;
44750;SDS011;30477;48.224;11.470;2022-08-26T00:39:50;19.73;;;14.43;;
44750;SDS011;30477;48.224;11.470;2022-08-26T00:42:16;22.23;;;14.18;;
44750;SDS011;30477;48.224;11.470;2022-08-26T00:44:42;22.60;;;14.50;;
44750;SDS011;30477;48.224;11.470;2022-08-26T00:47:08;21.53;;;14.57;;
44750;SDS011;30477;48.224;11.470;2022-08-26T00:49:43;20.00;;;13.68;;
44750;SDS011;30477;48.224;11.470;2022-08-26T00:52:12;20.30;;;14.55;;
44750;SDS011;30477;48.224;11.470;2022-08-26T00:54:44;22.63;;;15.02;;
44750;SDS011;30477;48.224;11.470;2022-08-26T00:57:16;20.10;;;13.68;;
44750;SDS011;30477;48.224;11.470;2022-08-26T00:59:48;21.05;;;14.55;;
44750;SDS011;30477;48.224;11.470;2022-08-26T01:02:16;20.98;;;14.77;;
44750;SDS011;30477;48.224;11.470;2022-08-26T01:04:42;20.50;;;13.80;;
44750;SDS011;30477;48.224;11.470;2022-08-26T01:07:08;21.75;;;14.52;;
44750;SDS011;30477;48.224;11.470;2022-08-26T01:09:33;18.75;;;14.05;;
44750;SDS011;30477;48.224;11.470;2022-08-26T01:12:00;22.02;;;14.70;;
44750;SDS011;30477;48.224;11.470;2022-08-26T01:14:28;23.73;;;15.32;;
44750;SDS011;30477;48.224;11.470;2022-08-26T01:16:56;19.83;;;13.45;;
44750;SDS011;30477;48.224;11.470;2022-08-26T01:19:37;22.77;;;15.30;;
44750;SDS011;30477;48.224;11.470;2022-08-26T01:22:09;20.05;;;14.23;;
44750;SDS011;30477;48.224;11.470;2022-08-26T01:24:38;20.63;;;14.13;;
44750;SDS011;30477;48.224;11.470;2022-08-26T01:27:06;19.27;;;14.20;;
44750;SDS011;30477;48.224;11.470;2022-08-26T01:29:33;18.33;;;13.98;;
44750;SDS011;30477;48.224;11.470;2022-08-26T01:32:00;17.00;;;13.75;;
44750;SDS011;30477;48.224;11.470;2022-08-26T01:34:31;22.88;;;14.73;;
44750;SDS011;30477;48.224;11.470;2022-08-26T01:37:15;20.95;;;15.85;;
44750;SDS011;30477;48.224;11.470;2022-08-26T01:39:42;23.02;;;14.77;;
44750;SDS011;30477;48.224;11.470;2022-08-26T01:42:11;21.55;;;15.18;;
44750;SDS011;30477;48.224;11.470;2022-08-26T01:44:40;18.92;;;14.60;;
44750;SDS011;30477;48.224;11.470;2022-08-26T01:47:09;18.83;;;14.55;;
44750;SDS011;30477;48.224;11.470;2022-08-26T01:49:37;23.42;;;15.10;;
44750;SDS011;30477;48.224;11.470;2022-08-26T01:52:03;25.67;;;15.00;;
44750;SDS011;30477;48.224;11.470;2022-08-26T01:54:31;21.85;;;15.52;;
44750;SDS011;30477;48.224;11.470;2022-08-26T01:56:57;20.50;;;14.98;;
44750;SDS011;30477;48.224;11.470;2022-08-26T01:59:22;19.55;;;15.25;;
44750;SDS011;30477;48.224;11.470;2022-08-26T02:01:48;23.75;;;15.85;;
44750;SDS011;30477;48.224;11.470;2022-08-26T02:04:16;22.50;;;15.88;;
44750;SDS011;30477;48.224;11.470;2022-08-26T02:06:46;22.65;;;15.60;;
44750;SDS011;30477;48.224;11.470;2022-08-26T02:11:38;20.77;;;15.43;;
44750;SDS011;30477;48.224;11.470;2022-08-26T02:14:06;21.38;;;14.77;;
44750;SDS011;30477;48.224;11.470;2022-08-26T02:16:36;19.55;;;14.43;;
44750;SDS011;30477;48.224;11.470;2022-08-26T02:19:04;21.17;;;15.30;;
44750;SDS011;30477;48.224;11.470;2022-08-26T02:21:34;20.05;;;15.05;;
44750;SDS011;30477;48.224;11.470;2022-08-26T02:24:13;20.85;;;14.73;;
44750;SDS011;30477;48.224;11.470;2022-08-26T02:26:42;23.25;;;15.68;;
44750;SDS011;30477;48.224;11.470;2022-08-26T02:29:12;22.27;;;16.13;;
44750;SDS011;30477;48.224;11.470;2022-08-26T02:31:53;20.40;;;16.55;;
44750;SDS011;30477;48.224;11.470;2022-08-26T02:34:20;21.80;;;16.45;;
44750;SDS011;30477;48.224;11.470;2022-08-26T02:36:47;24.70;;;17.00;;
44750;SDS011;30477;48.224;11.470;2022-08-26T02:39:13;22.80;;;16.55;;
44750;SDS011;30477;48.224;11.470;2022-08-26T02:41:40;22.98;;;16.75;;
44750;SDS011;30477;48.224;11.470;2022-08-26T02:44:06;21.40;;;17.40;;
44750;SDS011;30477;48.224;11.470;2022-08-26T02:46:31;24.90;;;18.13;;
44750;SDS011;30477;48.224;11.470;2022-08-26T02:48:57;24.03;;;16.87;;
44750;SDS011;30477;48.224;11.470;2022-08-26T02:51:22;22.95;;;17.48;;
44750;SDS011;30477;48.224;11.470;2022-08-26T02:53:48;24.47;;;16.23;;
44750;SDS011;30477;48.224;11.470;2022-08-26T02:56:13;21.95;;;17.02;;
44750;SDS011;30477;48.224;11.470;2022-08-26T02:58:39;21.50;;;15.47;;
44750;SDS011;30477;48.224;11.470;2022-08-26T03:01:04;25.00;;;17.10;;
44750;SDS011;30477;48.224;11.470;2022-08-26T03:03:30;22.63;;;15.90;;
44750;SDS011;30477;48.224;11.470;2022-08-26T03:05:55;28.00;;;16.88;;
44750;SDS011;30477;48.224;11.470;2022-08-26T03:08:21;21.15;;;16.73;;
44750;SDS011;30477;48.224;11.470;2022-08-26T03:10:47;27.67;;;16.97;;
44750;SDS011;30477;48.224;11.470;2022-08-26T03:13:13;23.87;;;16.90;;
44750;SDS011;30477;48.224;11.470;2022-08-26T03:15:39;21.45;;;16.92;;
44750;SDS011;30477;48.224;11.470;2022-08-26T03:18:04;22.42;;;16.60;;
44750;SDS011;30477;48.224;11.470;2022-08-26T03:20:31;22.48;;;17.88;;
44750;SDS011;30477;48.224;11.470;2022-08-26T03:25:22;27.90;;;18.27;;
44750;SDS011;30477;48.224;11.470;2022-08-26T03:27:49;24.55;;;18.15;;
44750;SDS011;30477;48.224;11.470;2022-08-26T03:30:15;23.35;;;17.73;;
44750;SDS011;30477;48.224;11.470;2022-08-26T03:32:59;27.98;;;17.50;;
44750;SDS011;30477;48.224;11.470;2022-08-26T03:35:25;23.50;;;17.33;;
44750;SDS011;30477;48.224;11.470;2022-08-26T03:37:51;24.23;;;16.77;;
44750;SDS011;30477;48.224;11.470;2022-08-26T03:40:17;25.08;;;17.08;;
44750;SDS011;30477;48.224;11.470;2022-08-26T03:42:44;21.88;;;15.98;;
44750;SDS011;30477;48.224;11.470;2022-08-26T03:45:10;21.45;;;15.25;;
44750;SDS011;30477;48.224;11.470;2022-08-26T03:47:37;22.33;;;15.88;;
44750;SDS011;30477;48.224;11.470;2022-08-26T03:50:04;22.35;;;15.90;;
44750;SDS011;30477;48.224;11.470;2022-08-26T03:52:31;21.42;;;15.98;;
44750;SDS011;30477;48.224;11.470;2022-08-26T03:54:57;20.17;;;16.20;;
44750;SDS011;30477;48.224;11.470;2022-08-26T03:57:22;20.93;;;15.80;;
44750;SDS011;30477;48.224;11.470;2022-08-26T03:59:48;25.53;;;17.33;;
44750;SDS011;30477;48.224;11.470;2022-08-26T04:02:13;22.03;;;17.00;;
44750;SDS011;30477;48.224;11.470;2022-08-26T04:04:39;24.25;;;17.60;;
44750;SDS011;30477;48.224;11.470;2022-08-26T04:07:04;23.27;;;15.50;;
44750;SDS011;30477;48.224;11.470;2022-08-26T04:09:30;25.47;;;17.80;;
44750;SDS011;30477;48.224;11.470;2022-08-26T04:11:55;22.10;;;17.27;;
44750;SDS011;30477;48.224;11.470;2022-08-26T04:14:23;21.70;;;17.35;;
44750;SDS011;30477;48.224;11.470;2022-08-26T04:16:50;26.60;;;18.70;;
44750;SDS011;30477;48.224;11.470;2022-08-26T04:19:16;32.40;;;18.23;;
44750;SDS011;30477;48.224;11.470;2022-08-26T04:21:44;23.05;;;18.95;;
44750;SDS011;30477;48.224;11.470;2022-08-26T04:24:11;28.60;;;19.13;;
44750;SDS011;30477;48.224;11.470;2022-08-26T04:26:39;27.45;;;18.90;;
44750;SDS011;30477;48.224;11.470;2022-08-26T04:29:06;24.60;;;19.98;;
44750;SDS011;30477;48.224;11.470;2022-08-26T04:31:35;27.73;;;18.27;;
44750;SDS011;30477;48.224;11.470;2022-08-26T04:34:01;24.13;;;18.05;;
44750;SDS011;30477;48.224;11.470;2022-08-26T04:38:53;29.05;;;19.63;;
44750;SDS011;30477;48.224;11.470;2022-08-26T04:41:18;25.23;;;17.73;;
44750;SDS011;30477;48.224;11.470;2022-08-26T04:43:44;25.27;;;17.85;;
44750;SDS011;30477;48.224;11.470;2022-08-26T04:48:36;28.27;;;18.88;;
44750;SDS011;30477;48.224;11.470;2022-08-26T04:51:02;28.17;;;19.60;;
44750;SDS011;30477;48.224;11.470;2022-08-26T04:53:28;25.60;;;18.77;;
44750;SDS011;30477;48.224;11.470;2022-08-26T04:55:55;29.10;;;18.83;;
44750;SDS011;30477;48.224;11.470;2022-08-26T05:01:01;25.58;;;18.25;;
44750;SDS011;30477;48.224;11.470;2022-08-26T05:03:26;26.23;;;20.17;;
44750;SDS011;30477;48.224;11.470;2022-08-26T05:05:53;31.13;;;20.90;;
44750;SDS011;30477;48.224;11.470;2022-08-26T05:08:20;30.65;;;20.30;;
44750;SDS011;30477;48.224;11.470;2022-08-26T05:10:48;26.20;;;20.52;;
44750;SDS011;30477;48.224;11.470;2022-08-26T05:13:21;27.38;;;20.75;;
44750;SDS011;30477;48.224;11.470;2022-08-26T05:15:48;33.25;;;21.42;;
44750;SDS011;30477;48.224;11.470;2022-08-26T05:18:17;29.52;;;21.70;;
44750;SDS011;30477;48.224;11.470;2022-08-26T05:20:46;30.00;;;20.27;;
44750;SDS011;30477;48.224;11.470;2022-08-26T05:23:14;31.23;;;21.90;;
44750;SDS011;30477;48.224;11.470;2022-08-26T05:25:41;28.95;;;21.00;;
44750;SDS011;30477;48.224;11.470;2022-08-26T05:28:10;33.53;;;21.33;;
44750;SDS011;30477;48.224;11.470;2022-08-26T05:30:37;29.45;;;21.10;;
44750;SDS011;30477;48.224;11.470;2022-08-26T05:33:03;26.23;;;20.38;;
44750;SDS011;30477;48.224;11.470;2022-08-26T05:35:29;30.73;;;20.65;;
44750;SDS011;30477;48.224;11.470;2022-08-26T05:37:58;27.95;;;21.08;;
44750;SDS011;30477;48.224;11.470;2022-08-26T05:40:25;29.58;;;20.77;;
44750;SDS011;30477;48.224;11.470;2022-08-26T05:42:51;25.40;;;19.17;;
44750;SDS011;30477;48.224;11.470;2022-08-26T05:45:17;37.08;;;21.23;;
44750;SDS011;30477;48.224;11.470;2022-08-26T05:47:42;28.27;;;20.63;;
44750;SDS011;30477;48.224;11.470;2022-08-26T05:50:08;27.23;;;20.17;;
44750;SDS011;30477;48.224;11.470;2022-08-26T05:52:33;29.27;;;20.15;;
44750;SDS011;30477;48.224;11.470;2022-08-26T05:54:59;27.27;;;20.13;;
44750;SDS011;30477;48.224;11.470;2022-08-26T05:57:26;26.60;;;17.88;;
44750;SDS011;30477;48.224;11.470;2022-08-26T05:59:53;30.38;;;19.50;;
44750;SDS011;30477;48.224;11.470;2022-08-26T06:02:19;25.73;;;18.52;;
44750;SDS011;30477;48.224;11.470;2022-08-26T06:04:44;26.27;;;19.70;;
44750;SDS011;30477;48.224;11.470;2022-08-26T06:07:10;22.30;;;18.50;;
44750;SDS011;30477;48.224;11.470;2022-08-26T06:09:35;28.47;;;19.50;;
44750;SDS011;30477;48.224;11.470;2022-08-26T06:14:27;25.83;;;19.27;;
44750;SDS011;30477;48.224;11.470;2022-08-26T06:16:52;28.43;;;18.37;;
44750;SDS011;30477;48.224;11.470;2022-08-26T06:19:18;24.60;;;17.10;;
44750;SDS011;30477;48.224;11.470;2022-08-26T06:21:46;27.45;;;16.98;;
44750;SDS011;30477;48.224;11.470;2022-08-26T06:24:14;22.05;;;16.55;;
44750;SDS011;30477;48.224;11.470;2022-08-26T06:26:59;23.40;;;16.35;;
44750;SDS011;30477;48.224;11.470;2022-08-26T06:29:27;31.17;;;17.33;;
44750;SDS011;30477;48.224;11.470;2022-08-26T06:31:55;23.35;;;17.05;;
44750;SDS011;30477;48.224;11.470;2022-08-26T06:34:20;26.75;;;17.55;;
44750;SDS011;30477;48.224;11.470;2022-08-26T06:36:46;25.67;;;17.10;;
44750;SDS011;30477;48.224;11.470;2022-08-26T06:39:13;21.75;;;16.75;;
44750;SDS011;30477;48.224;11.470;2022-08-26T06:41:40;20.77;;;15.35;;
44750;SDS011;30477;48.224;11.470;2022-08-26T06:44:10;22.13;;;16.55;;
44750;SDS011;30477;48.224;11.470;2022-08-26T06:46:38;22.00;;;16.15;;
44750;SDS011;30477;48.224;11.470;2022-08-26T06:49:04;23.02;;;16.58;;
44750;SDS011;30477;48.224;11.470;2022-08-26T06:51:31;23.42;;;17.20;;
44750;SDS011;30477;48.224;11.470;2022-08-26T06:53:58;27.85;;;18.10;;
44750;SDS011;30477;48.224;11.470;2022-08-26T06:56:26;22.60;;;16.50;;
44750;SDS011;30477;48.224;11.470;2022-08-26T06:58:53;22.98;;;16.60;;
44750;SDS011;30477;48.224;11.470;2022-08-26T07:01:20;23.05;;;15.93;;
44750;SDS011;30477;48.224;11.470;2022-08-26T07:03:49;25.33;;;16.88;;
44750;SDS011;30477;48.224;11.470;2022-08-26T07:06:16;25.25;;;16.63;;
44750;SDS011;30477;48.224;11.470;2022-08-26T07:08:44;27.02;;;17.27;;
44750;SDS011;30477;48.224;11.470;2022-08-26T07:11:13;23.05;;;16.85;;
44750;SDS011;30477;48.224;11.470;2022-08-26T07:13:39;28.60;;;17.33;;
44750;SDS011;30477;48.224;11.470;2022-08-26T07:16:05;25.48;;;16.65;;
44750;SDS011;30477;48.224;11.470;2022-08-26T07:18:32;22.05;;;15.77;;
44750;SDS011;30477;48.224;11.470;2022-08-26T07:21:00;23.20;;;16.35;;
44750;SDS011;30477;48.224;11.470;2022-08-26T07:23:26;20.92;;;16.63;;
44750;SDS011;30477;48.224;11.470;2022-08-26T07:25:51;20.23;;;14.77;;
44750;SDS011;30477;48.224;11.470;2022-08-26T07:28:17;21.37;;;16.37;;
44750;SDS011;30477;48.224;11.470;2022-08-26T07:30:42;21.07;;;14.03;;
44750;SDS011;30477;48.224;11.470;2022-08-26T07:33:07;19.53;;;14.23;;
44750;SDS011;30477;48.224;11.470;2022-08-26T07:35:33;19.20;;;14.03;;
44750;SDS011;30477;48.224;11.470;2022-08-26T07:37:58;22.17;;;14.73;;
44750;SDS011;30477;48.224;11.470;2022-08-26T07:40:25;16.35;;;13.50;;
44750;SDS011;30477;48.224;11.470;2022-08-26T07:42:51;20.08;;;14.18;;
44750;SDS011;30477;48.224;11.470;2022-08-26T07:45:16;16.70;;;13.13;;
44750;SDS011;30477;48.224;11.470;2022-08-26T07:47:41;17.60;;;13.57;;
44750;SDS011;30477;48.224;11.470;2022-08-26T07:50:07;15.52;;;13.13;;
44750;SDS011;30477;48.224;11.470;2022-08-26T07:52:33;15.63;;;12.70;;
44750;SDS011;30477;48.224;11.470;2022-08-26T07:54:59;18.23;;;12.95;;
44750;SDS011;30477;48.224;11.470;2022-08-26T07:57:26;18.58;;;12.65;;
44750;SDS011;30477;48.224;11.470;2022-08-26T07:59:52;16.17;;;12.40;;
44750;SDS011;30477;48.224;11.470;2022-08-26T08:02:18;13.90;;;12.13;;
44750;SDS011;30477;48.224;11.470;2022-08-26T08:04:43;16.33;;;12.27;;
44750;SDS011;30477;48.224;11.470;2022-08-26T08:07:09;21.63;;;12.90;;
44750;SDS011;30477;48.224;11.470;2022-08-26T08:09:34;21.35;;;12.93;;
44750;SDS011;30477;48.224;11.470;2022-08-26T08:12:00;13.50;;;12.13;;
44750;SDS011;30477;48.224;11.470;2022-08-26T08:14:25;16.77;;;11.98;;
44750;SDS011;30477;48.224;11.470;2022-08-26T08:16:51;16.17;;;11.83;;
44750;SDS011;30477;48.224;11.470;2022-08-26T08:19:16;18.33;;;12.53;;
44750;SDS011;30477;48.224;11.470;2022-08-26T08:21:42;13.98;;;11.68;;
44750;SDS011;30477;48.224;11.470;2022-08-26T08:24:08;15.25;;;11.20;;
44750;SDS011;30477;48.224;11.470;2022-08-26T08:26:34;25.60;;;12.45;;
44750;SDS011;30477;48.224;11.470;2022-08-26T08:28:59;12.80;;;11.13;;
44750;SDS011;30477;48.224;11.470;2022-08-26T08:31:26;14.97;;;11.27;;
44750;SDS011;30477;48.224;11.470;2022-08-26T08:33:54;13.05;;;11.23;;
44750;SDS011;30477;48.224;11.470;2022-08-26T08:36:19;14.05;;;10.60;;
44750;SDS011;30477;48.224;11.470;2022-08-26T08:38:45;12.93;;;10.90;;
44750;SDS011;30477;48.224;11.470;2022-08-26T08:41:16;13.13;;;11.25;;
44750;SDS011;30477;48.224;11.470;2022-08-26T08:43:51;12.95;;;10.93;;
44750;SDS011;30477;48.224;11.470;2022-08-26T08:46:18;12.60;;;10.88;;
44750;SDS011;30477;48.224;11.470;2022-08-26T08:48:45;15.00;;;11.00;;
44750;SDS011;30477;48.224;11.470;2022-08-26T08:54:04;13.05;;;11.60;;
44750;SDS011;30477;48.224;11.470;2022-08-26T08:59:14;17.92;;;11.30;;
44750;SDS011;30477;48.224;11.470;2022-08-26T09:06:59;12.40;;;11.13;;
44750;SDS011;30477;48.224;11.470;2022-08-26T09:10:00;14.88;;;11.70;;
44750;SDS011;30477;48.224;11.470;2022-08-26T09:12:24;15.52;;;11.65;;
44750;SDS011;30477;48.224;11.470;2022-08-26T09:14:52;12.43;;;11.13;;
44750;SDS011;30477;48.224;11.470;2022-08-26T09:17:28;19.83;;;12.93;;
44750;SDS011;30477;48.224;11.470;2022-08-26T09:20:32;14.75;;;11.63;;
44750;SDS011;30477;48.224;11.470;2022-08-26T09:23:11;15.52;;;11.48;;
44750;SDS011;30477;48.224;11.470;2022-08-26T09:25:50;17.30;;;11.88;;
44750;SDS011;30477;48.224;11.470;2022-08-26T09:28:22;20.17;;;14.05;;
44750;SDS011;30477;48.224;11.470;2022-08-26T09:33:29;21.27;;;14.18;;
44750;SDS011;30477;48.224;11.470;2022-08-26T09:38:40;17.65;;;12.68;;
44750;SDS011;30477;48.224;11.470;2022-08-26T09:41:06;17.48;;;12.23;;
44750;SDS011;30477;48.224;11.470;2022-08-26T09:46:35;18.73;;;11.88;;
44750;SDS011;30477;48.224;11.470;2022-08-26T09:49:20;16.42;;;12.25;;
44750;SDS011;30477;48.224;11.470;2022-08-26T09:52:01;21.83;;;12.60;;
44750;SDS011;30477;48.224;11.470;2022-08-26T09:54:29;15.30;;;12.00;;
44750;SDS011;30477;48.224;11.470;2022-08-26T09:57:09;17.40;;;11.90;;
44750;SDS011;30477;48.224;11.470;2022-08-26T09:59:45;23.02;;;10.45;;
44750;SDS011;30477;48.224;11.470;2022-08-26T10:02:14;17.13;;;10.57;;
44750;SDS011;30477;48.224;11.470;2022-08-26T10:04:41;16.77;;;10.93;;
44750;SDS011;30477;48.224;11.470;2022-08-26T10:07:15;17.42;;;11.15;;
44750;SDS011;30477;48.224;11.470;2022-08-26T10:15:17;15.60;;;9.73;;
44750;SDS011;30477;48.224;11.470;2022-08-26T10:17:48;15.50;;;9.88;;
44750;SDS011;30477;48.224;11.470;2022-08-26T10:20:20;12.70;;;9.07;;
44750;SDS011;30477;48.224;11.470;2022-08-26T10:23:09;14.32;;;9.25;;
44750;SDS011;30477;48.224;11.470;2022-08-26T10:28:29;14.25;;;8.77;;
44750;SDS011;30477;48.224;11.470;2022-08-26T10:31:19;16.10;;;9.30;;
44750;SDS011;30477;48.224;11.470;2022-08-26T10:33:50;17.08;;;9.27;;
44750;SDS011;30477;48.224;11.470;2022-08-26T10:36:17;16.83;;;8.15;;
44750;SDS011;30477;48.224;11.470;2022-08-26T10:39:03;12.18;;;8.45;;
44750;SDS011;30477;48.224;11.470;2022-08-26T10:41:35;13.10;;;8.40;;
44750;SDS011;30477;48.224;11.470;2022-08-26T10:44:04;11.60;;;7.57;;
44750;SDS011;30477;48.224;11.470;2022-08-26T10:46:42;11.70;;;8.40;;
44750;SDS011;30477;48.224;11.470;2022-08-26T10:49:12;15.25;;;8.50;;
44750;SDS011;30477;48.224;11.470;2022-08-26T10:52:02;12.35;;;8.10;;
44750;SDS011;30477;48.224;11.470;2022-08-26T10:57:17;12.88;;;7.75;;
44750;SDS011;30477;48.224;11.470;2022-08-26T11:02:27;13.88;;;7.72;;
44750;SDS011;30477;48.224;11.470;2022-08-26T11:05:04;11.45;;;7.30;;
44750;SDS011;30477;48.224;11.470;2022-08-26T11:07:45;17.13;;;7.55;;
44750;SDS011;30477;48.224;11.470;2022-08-26T11:22:53;13.20;;;7.20;;
44750;SDS011;30477;48.224;11.470;2022-08-26T11:25:23;11.77;;;7.03;;
44750;SDS011;30477;48.224;11.470;2022-08-26T11:27:53;12.95;;;6.03;;
44750;SDS011;30477;48.224;11.470;2022-08-26T11:40:25;15.85;;;5.72;;
44750;SDS011;30477;48.224;11.470;2022-08-26T11:42:57;13.73;;;6.30;;
44750;SDS011;30477;48.224;11.470;2022-08-26T11:48:17;16.50;;;5.97;;
44750;SDS011;30477;48.224;11.470;2022-08-26T11:53:19;14.23;;;5.93;;
44750;SDS011;30477;48.224;11.470;2022-08-26T11:55:46;13.55;;;6.15;;
44750;SDS011;30477;48.224;11.470;2022-08-26T11:58:14;14.13;;;5.50;;
44750;SDS011;30477;48.224;11.470;2022-08-26T12:03:08;11.98;;;5.75;;
44750;SDS011;30477;48.224;11.470;2022-08-26T12:05:42;12.32;;;5.18;;
44750;SDS011;30477;48.224;11.470;2022-08-26T12:08:10;14.18;;;6.25;;
44750;SDS011;30477;48.224;11.470;2022-08-26T12:10:40;11.23;;;6.25;;
44750;SDS011;30477;48.224;11.470;2022-08-26T12:15:31;10.53;;;5.60;;
44750;SDS011;30477;48.224;11.470;2022-08-26T12:18:15;10.68;;;5.70;;
44750;SDS011;30477;48.224;11.470;2022-08-26T12:20:42;14.90;;;6.72;;
44750;SDS011;30477;48.224;11.470;2022-08-26T12:23:25;13.02;;;6.57;;
44750;SDS011;30477;48.224;11.470;2022-08-26T12:26:45;11.93;;;7.60;;
44750;SDS011;30477;48.224;11.470;2022-08-26T12:28:51;13.05;;;7.40;;
44750;SDS011;30477;48.224;11.470;2022-08-26T12:31:20;12.63;;;6.72;;
44750;SDS011;30477;48.224;11.470;2022-08-26T12:33:48;12.80;;;7.15;;
44750;SDS011;30477;48.224;11.470;2022-08-26T12:36:19;16.52;;;8.07;;
44750;SDS011;30477;48.224;11.470;2022-08-26T12:38:48;13.23;;;8.05;;
44750;SDS011;30477;48.224;11.470;2022-08-26T12:43:58;15.07;;;7.75;;
44750;SDS011;30477;48.224;11.470;2022-08-26T12:48:50;12.15;;;7.60;;
44750;SDS011;30477;48.224;11.470;2022-08-26T12:53:45;13.02;;;7.13;;
44750;SDS011;30477;48.224;11.470;2022-08-26T12:59:05;12.77;;;6.97;;
44750;SDS011;30477;48.224;11.470;2022-08-26T13:01:46;10.35;;;5.75;;
44750;SDS011;30477;48.224;11.470;2022-08-26T13:07:13;9.52;;;4.85;;
44750;SDS011;30477;48.224;11.470;2022-08-26T13:09:46;6.32;;;4.95;;
44750;SDS011;30477;48.224;11.470;2022-08-26T13:12:21;8.07;;;4.45;;
44750;SDS011;30477;48.224;11.470;2022-08-26T13:14:48;11.90;;;4.95;;
44750;SDS011;30477;48.224;11.470;2022-08-26T13:17:14;11.15;;;4.95;;
44750;SDS011;30477;48.224;11.470;2022-08-26T13:19:41;9.35;;;5.00;;
44750;SDS011;30477;48.224;11.470;2022-08-26T13:24:36;9.68;;;5.15;;
44750;SDS011;30477;48.224;11.470;2022-08-26T13:27:04;8.18;;;4.88;;
44750;SDS011;30477;48.224;11.470;2022-08-26T13:29:32;8.13;;;4.88;;
44750;SDS011;30477;48.224;11.470;2022-08-26T13:34:23;12.52;;;5.32;;
44750;SDS011;30477;48.224;11.470;2022-08-26T13:39:16;13.10;;;5.50;;
44750;SDS011;30477;48.224;11.470;2022-08-26T13:41:42;12.95;;;5.95;;
44750;SDS011;30477;48.224;11.470;2022-08-26T13:46:33;8.13;;;5.20;;
44750;SDS011;30477;48.224;11.470;2022-08-26T13:51:24;8.73;;;5.43;;
44750;SDS011;30477;48.224;11.470;2022-08-26T13:53:51;11.23;;;5.20;;
44750;SDS011;30477;48.224;11.470;2022-08-26T13:56:17;8.32;;;4.80;;
44750;SDS011;30477;48.224;11.470;2022-08-26T13:58:43;9.23;;;5.13;;
44750;SDS011;30477;48.224;11.470;2022-08-26T14:01:09;9.57;;;5.40;;
44750;SDS011;30477;48.224;11.470;2022-08-26T14:06:01;8.07;;;5.03;;
44750;SDS011;30477;48.224;11.470;2022-08-26T14:10:51;11.40;;;4.97;;
44750;SDS011;30477;48.224;11.470;2022-08-26T14:15:42;7.47;;;4.95;;
44750;SDS011;30477;48.224;11.470;2022-08-26T14:20:36;12.68;;;5.57;;
44750;SDS011;30477;48.224;11.470;2022-08-26T14:23:02;10.93;;;5.85;;
44750;SDS011;30477;48.224;11.470;2022-08-26T14:27:54;10.00;;;5.40;;
44750;SDS011;30477;48.224;11.470;2022-08-26T14:30:23;10.95;;;6.25;;
44750;SDS011;30477;48.224;11.470;2022-08-26T14:35:18;16.00;;;5.63;;
44750;SDS011;30477;48.224;11.470;2022-08-26T14:37:45;11.07;;;6.15;;
44750;SDS011;30477;48.224;11.470;2022-08-26T14:42:37;11.65;;;6.80;;
44750;SDS011;30477;48.224;11.470;2022-08-26T14:47:31;20.23;;;8.38;;
44750;SDS011;30477;48.224;11.470;2022-08-26T14:52:21;14.50;;;7.97;;
44750;SDS011;30477;48.224;11.470;2022-08-26T14:57:12;13.87;;;8.03;;
44750;SDS011;30477;48.224;11.470;2022-08-26T15:02:08;14.02;;;8.18;;
44750;SDS011;30477;48.224;11.470;2022-08-26T15:04:35;15.05;;;7.70;;
44750;SDS011;30477;48.224;11.470;2022-08-26T15:07:02;18.85;;;7.75;;
44750;SDS011;30477;48.224;11.470;2022-08-26T15:09:28;13.25;;;7.65;;
44750;SDS011;30477;48.224;11.470;2022-08-26T15:11:56;13.60;;;8.00;;
44750;SDS011;30477;48.224;11.470;2022-08-26T15:16:47;12.50;;;7.65;;
44750;SDS011;30477;48.224;11.470;2022-08-26T15:19:15;14.80;;;7.88;;
44750;SDS011;30477;48.224;11.470;2022-08-26T15:21:41;15.75;;;7.97;;
44750;SDS011;30477;48.224;11.470;2022-08-26T15:24:07;12.30;;;7.68;;
44750;SDS011;30477;48.224;11.470;2022-08-26T15:28:58;12.55;;;7.05;;
44750;SDS011;30477;48.224;11.470;2022-08-26T15:33:55;10.85;;;6.50;;
44750;SDS011;30477;48.224;11.470;2022-08-26T15:36:23;19.73;;;7.18;;
44750;SDS011;30477;48.224;11.470;2022-08-26T15:38:50;16.35;;;7.70;;
44750;SDS011;30477;48.224;11.470;2022-08-26T15:43:40;16.07;;;7.37;;
44750;SDS011;30477;48.224;11.470;2022-08-26T15:48:34;14.75;;;7.40;;
44750;SDS011;30477;48.224;11.470;2022-08-26T15:53:26;15.07;;;8.23;;
44750;SDS011;30477;48.224;11.470;2022-08-26T15:55:54;13.93;;;7.47;;
44750;SDS011;30477;48.224;11.470;2022-08-26T15:58:20;16.45;;;8.25;;
44750;SDS011;30477;48.224;11.470;2022-08-26T16:00:48;14.40;;;7.43;;
44750;SDS011;30477;48.224;11.470;2022-08-26T16:05:39;12.93;;;7.25;;
44750;SDS011;30477;48.224;11.470;2022-08-26T16:08:07;14.63;;;7.15;;
44750;SDS011;30477;48.224;11.470;2022-08-26T16:10:34;14.63;;;6.93;;
44750;SDS011;30477;48.224;11.470;2022-08-26T16:13:01;16.20;;;7.60;;
44750;SDS011;30477;48.224;11.470;2022-08-26T16:17:52;11.95;;;6.60;;
44750;SDS011;30477;48.224;11.470;2022-08-26T16:22:43;11.68;;;7.03;;
44750;SDS011;30477;48.224;11.470;2022-08-26T16:25:08;15.60;;;7.85;;
44750;SDS011;30477;48.224;11.470;2022-08-26T16:27:34;13.10;;;7.50;;
44750;SDS011;30477;48.224;11.470;2022-08-26T16:32:25;14.60;;;7.85;;
44750;SDS011;30477;48.224;11.470;2022-08-26T16:37:16;16.92;;;7.07;;
44750;SDS011;30477;48.224;11.470;2022-08-26T16:39:42;11.43;;;6.83;;
44750;SDS011;30477;48.224;11.470;2022-08-26T16:42:07;11.60;;;7.60;;
44750;SDS011;30477;48.224;11.470;2022-08-26T16:44:32;13.23;;;6.77;;
44750;SDS011;30477;48.224;11.470;2022-08-26T16:47:09;15.27;;;7.15;;
44750;SDS011;30477;48.224;11.470;2022-08-26T16:49:36;12.38;;;7.38;;
44750;SDS011;30477;48.224;11.470;2022-08-26T16:54:27;15.93;;;8.05;;
44750;SDS011;30477;48.224;11.470;2022-08-26T16:59:17;14.77;;;7.50;;
44750;SDS011;30477;48.224;11.470;2022-08-26T17:04:08;16.70;;;7.47;;
44750;SDS011;30477;48.224;11.470;2022-08-26T17:08:59;14.98;;;7.30;;
44750;SDS011;30477;48.224;11.470;2022-08-26T17:11:24;12.18;;;7.47;;